Time;durP1;ratioP1;P1;durP2;ratioP2;P2;SDS_P1;SDS_P2;PMS_P1;PMS_P2;Temp;Humidity;BMP_temperature;BMP_pressure;BME280_temperature;BME280_humidity;BME280_pressure;Samples;Min_cycle;Max_cycle;Signal;HPM_P1;HPM_P2
2022/12/02 00:02:21;;;;;;;17.45;9.73;;;3.60;99.90;;;;;;5029669;28;20203;-72
2022/12/02 00:04:54;;;;;;;15.43;9.70;;;3.60;99.90;;;;;;5029993;28;20724;-72
2022/12/02 00:07:22;;;;;;;17.15;9.30;;;3.60;99.90;;;;;;5029626;28;20202;-71
2022/12/02 00:09:49;;;;;;;17.73;10.57;;;3.60;99.90;;;;;;5029894;28;20209;-72
2022/12/02 00:12:21;;;;;;;17.90;9.27;;;3.60;99.90;;;;;;5032109;28;20202;-72
2022/12/02 00:14:54;;;;;;;20.17;10.95;;;3.60;99.90;;;;;;5033549;28;20229;-72
2022/12/02 00:17:20;;;;;;;20.83;10.57;;;3.60;99.90;;;;;;5033499;28;20225;-72
2022/12/02 00:19:47;;;;;;;18.45;11.23;;;3.60;99.90;;;;;;5033474;28;20564;-72
2022/12/02 00:22:14;;;;;;;15.50;10.57;;;3.50;99.90;;;;;;5033087;28;20622;-74
2022/12/02 00:24:40;;;;;;;17.10;10.40;;;3.50;99.90;;;;;;5033191;28;20215;-72
2022/12/02 00:27:07;;;;;;;15.82;10.60;;;3.50;99.90;;;;;;5033479;28;20206;-72
2022/12/02 00:29:35;;;;;;;20.58;11.10;;;3.50;99.90;;;;;;5033140;28;20206;-72
2022/12/02 00:32:02;;;;;;;19.67;10.20;;;3.50;99.90;;;;;;5032885;28;20582;-72
2022/12/02 00:34:29;;;;;;;17.10;9.00;;;3.40;99.90;;;;;;5033050;28;20234;-72
2022/12/02 00:36:56;;;;;;;17.63;11.30;;;3.50;99.90;;;;;;5033386;28;20251;-72
2022/12/02 00:39:22;;;;;;;18.38;9.95;;;3.40;99.90;;;;;;5032873;28;20202;-71
2022/12/02 00:41:49;;;;;;;21.73;10.95;;;3.50;99.90;;;;;;5032763;28;20209;-71
2022/12/02 00:47:01;;;;;;;14.95;9.07;;;3.50;99.90;;;;;;5033255;28;20266;-72
2022/12/02 00:49:28;;;;;;;20.13;10.65;;;3.50;99.90;;;;;;5032717;28;20217;-72
2022/12/02 00:51:55;;;;;;;17.27;10.57;;;3.50;99.90;;;;;;5032461;28;20213;-72
2022/12/02 00:54:21;;;;;;;18.55;9.32;;;3.40;99.90;;;;;;5032488;28;20225;-72
2022/12/02 00:56:48;;;;;;;19.08;9.80;;;3.50;99.90;;;;;;5033039;28;20203;-72
2022/12/02 00:59:15;;;;;;;18.98;10.07;;;3.40;99.90;;;;;;5032795;28;20213;-72
2022/12/02 01:01:43;;;;;;;18.65;11.00;;;3.50;99.90;;;;;;5032305;28;20206;-72
2022/12/02 01:04:11;;;;;;;14.50;9.68;;;3.50;99.90;;;;;;5032697;28;20889;-72
2022/12/02 01:06:38;;;;;;;22.05;10.27;;;3.50;99.90;;;;;;5032551;28;20218;-72
2022/12/02 01:09:05;;;;;;;16.60;9.57;;;3.50;99.90;;;;;;5032576;28;20225;-74
2022/12/02 01:11:31;;;;;;;18.70;11.63;;;3.50;99.90;;;;;;5031958;28;20704;-71
2022/12/02 01:13:58;;;;;;;16.77;10.00;;;3.50;99.90;;;;;;5032515;28;20678;-72
2022/12/02 01:16:25;;;;;;;21.77;10.05;;;3.50;99.90;;;;;;5032234;28;20222;-71
2022/12/02 01:18:52;;;;;;;19.25;11.30;;;3.50;99.90;;;;;;5032528;28;20213;-71
2022/12/02 01:21:22;;;;;;;14.60;9.95;;;3.50;99.90;;;;;;5031638;28;20301;-71
2022/12/02 01:23:48;;;;;;;18.83;9.85;;;3.50;99.90;;;;;;5032437;28;20203;-71
2022/12/02 01:26:15;;;;;;;16.00;10.60;;;3.50;99.90;;;;;;5032355;28;20819;-72
2022/12/02 01:28:42;;;;;;;22.40;11.35;;;3.50;99.90;;;;;;5032210;28;20205;-71
2022/12/02 01:31:09;;;;;;;19.80;11.30;;;3.60;99.90;;;;;;5031737;28;20202;-71
2022/12/02 01:33:36;;;;;;;19.13;10.70;;;3.50;99.90;;;;;;5032065;28;20217;-71
2022/12/02 01:36:02;;;;;;;19.42;11.05;;;3.50;99.90;;;;;;5032023;28;20273;-72
2022/12/02 01:38:30;;;;;;;17.05;9.70;;;3.50;99.90;;;;;;5031897;28;20203;-71
2022/12/02 01:40:57;;;;;;;22.00;11.52;;;3.50;99.90;;;;;;5031697;28;20208;-72
2022/12/02 01:43:24;;;;;;;16.40;9.45;;;3.50;99.90;;;;;;5031940;28;20202;-72
2022/12/02 01:45:51;;;;;;;16.63;9.10;;;3.50;99.90;;;;;;5032031;28;20240;-72
2022/12/02 01:48:19;;;;;;;12.45;8.90;;;3.50;99.90;;;;;;5031900;28;20210;-72
2022/12/02 01:50:46;;;;;;;24.52;10.23;;;3.50;99.90;;;;;;5031411;28;20578;-72
2022/12/02 01:53:13;;;;;;;15.68;10.23;;;3.60;99.90;;;;;;5031816;28;20213;-72
2022/12/02 01:55:41;;;;;;;16.40;9.50;;;3.50;99.90;;;;;;5031694;28;20604;-72
2022/12/02 01:58:11;;;;;;;17.55;10.27;;;3.50;99.90;;;;;;5031873;28;20206;-72
2022/12/02 02:00:38;;;;;;;18.25;9.68;;;3.50;99.90;;;;;;5030865;28;20210;-71
2022/12/02 02:03:05;;;;;;;15.52;10.00;;;3.50;99.90;;;;;;5031638;28;20202;-72
2022/12/02 02:05:34;;;;;;;17.83;10.43;;;3.50;99.90;;;;;;5031183;28;20237;-72
2022/12/02 02:08:05;;;;;;;15.75;9.80;;;3.50;99.90;;;;;;5031481;28;20206;-72
2022/12/02 02:10:33;;;;;;;18.55;11.20;;;3.60;99.90;;;;;;5030694;28;20214;-72
2022/12/02 02:13:02;;;;;;;16.02;9.38;;;3.60;99.90;;;;;;5031474;28;20207;-71
2022/12/02 02:15:29;;;;;;;16.92;10.68;;;3.60;99.90;;;;;;5031245;28;20226;-72
2022/12/02 02:17:58;;;;;;;19.20;9.95;;;3.60;99.90;;;;;;5031191;28;20202;-72
2022/12/02 02:20:26;;;;;;;15.93;9.65;;;3.60;99.90;;;;;;5030495;28;20206;-72
2022/12/02 02:23:00;;;;;;;20.25;11.23;;;3.50;99.90;;;;;;5031252;28;20198;-72
2022/12/02 02:25:28;;;;;;;16.73;11.70;;;3.50;99.90;;;;;;5031011;28;20225;-72
2022/12/02 02:27:58;;;;;;;21.13;11.35;;;3.50;99.90;;;;;;5031165;28;20207;-72
2022/12/02 02:30:27;;;;;;;16.83;9.60;;;3.50;99.90;;;;;;5030286;28;20210;-72
2022/12/02 02:32:54;;;;;;;19.48;10.25;;;3.50;99.90;;;;;;5031128;28;20203;-72
2022/12/02 02:35:21;;;;;;;18.45;12.13;;;3.50;99.90;;;;;;5030174;28;20218;-72
2022/12/02 02:37:50;;;;;;;18.98;10.38;;;3.50;99.90;;;;;;5031039;28;20867;-72
2022/12/02 02:40:18;;;;;;;21.73;12.50;;;3.50;99.90;;;;;;5030290;28;20206;-72
2022/12/02 02:42:50;;;;;;;18.73;11.50;;;3.50;99.90;;;;;;5030778;28;20205;-72
2022/12/02 02:45:17;;;;;;;17.70;9.98;;;3.50;99.90;;;;;;5030676;28;20218;-72
2022/12/02 02:47:44;;;;;;;21.33;10.20;;;3.50;99.90;;;;;;5030884;28;20689;-72
2022/12/02 02:50:11;;;;;;;18.20;10.48;;;3.50;99.90;;;;;;5030730;28;20206;-72
2022/12/02 02:52:38;;;;;;;18.13;10.68;;;3.50;99.90;;;;;;5030238;28;20210;-72
2022/12/02 02:55:06;;;;;;;18.42;10.32;;;3.50;99.90;;;;;;5030562;28;20902;-72
2022/12/02 02:57:35;;;;;;;18.10;9.85;;;3.60;99.90;;;;;;5030570;28;20209;-72
2022/12/02 03:00:04;;;;;;;17.10;10.48;;;3.50;99.90;;;;;;5030589;28;20210;-72
2022/12/02 03:02:31;;;;;;;18.73;10.40;;;3.50;99.90;;;;;;5030016;28;20213;-72
2022/12/02 03:04:58;;;;;;;20.80;10.13;;;3.50;99.90;;;;;;5030528;28;20215;-71
2022/12/02 03:07:25;;;;;;;20.33;11.73;;;3.50;99.90;;;;;;5030284;28;20217;-71
2022/12/02 03:09:52;;;;;;;21.13;10.25;;;3.50;99.90;;;;;;5030624;28;20205;-72
2022/12/02 03:12:19;;;;;;;21.13;9.48;;;3.50;99.90;;;;;;5029871;28;20230;-71
2022/12/02 03:14:46;;;;;;;16.58;9.65;;;3.50;99.90;;;;;;5030475;28;20222;-72
2022/12/02 03:17:15;;;;;;;13.50;8.57;;;3.50;99.90;;;;;;5030526;28;20237;-71
2022/12/02 03:19:43;;;;;;;14.40;8.75;;;3.50;99.90;;;;;;5056447;22;20221;-92
2022/12/02 03:22:11;;;;;;;24.58;10.82;;;3.50;99.90;;;;;;5091949;28;20228;-93
2022/12/02 03:24:38;;;;;;;17.55;10.27;;;3.50;99.90;;;;;;5097342;28;20183;-93
2022/12/02 03:27:06;;;;;;;18.63;10.65;;;3.50;99.90;;;;;;5097037;28;20189;-93
2022/12/02 03:29:33;;;;;;;15.70;9.50;;;3.50;99.90;;;;;;5096710;28;20181;-91
2022/12/02 03:32:01;;;;;;;20.38;11.48;;;3.60;99.90;;;;;;5096755;28;20186;-95
2022/12/02 03:34:30;;;;;;;18.45;10.73;;;3.60;99.90;;;;;;5096815;28;20189;-94
2022/12/02 03:36:58;;;;;;;15.18;10.10;;;3.50;99.90;;;;;;5097069;28;20282;-95
2022/12/02 03:39:26;;;;;;;18.52;9.65;;;3.50;99.90;;;;;;5097004;28;20224;-93
2022/12/02 03:41:53;;;;;;;19.63;9.43;;;3.50;99.90;;;;;;5096780;28;20273;-95
2022/12/02 03:44:19;;;;;;;21.40;11.25;;;3.50;99.90;;;;;;5096854;28;20201;-95
2022/12/02 03:46:47;;;;;;;18.50;9.90;;;3.50;99.90;;;;;;5100775;28;20257;-94
2022/12/02 03:49:16;;;;;;;16.08;9.90;;;3.50;99.90;;;;;;5100967;28;20201;-93
2022/12/02 03:51:45;;;;;;;18.23;9.10;;;3.60;99.90;;;;;;5100577;28;20197;-94
2022/12/02 03:54:15;;;;;;;13.85;8.90;;;3.60;99.90;;;;;;5100845;28;20189;-93
2022/12/02 03:56:43;;;;;;;20.85;10.65;;;3.60;99.90;;;;;;5100911;28;20281;-94
2022/12/02 03:59:11;;;;;;;15.50;9.00;;;3.60;99.90;;;;;;5100837;28;20253;-94
2022/12/02 04:01:38;;;;;;;18.25;10.05;;;3.60;99.90;;;;;;5100111;28;20201;-93
2022/12/02 04:04:05;;;;;;;15.57;10.15;;;3.60;99.90;;;;;;5100506;28;20188;-94
2022/12/02 04:06:31;;;;;;;16.40;9.85;;;3.60;99.90;;;;;;5100620;28;20252;-94
2022/12/02 04:09:00;;;;;;;15.00;8.50;;;3.60;99.90;;;;;;5100257;28;20212;-93
2022/12/02 04:11:26;;;;;;;20.17;9.65;;;3.60;99.90;;;;;;5099912;28;20273;-94
2022/12/02 04:13:53;;;;;;;15.82;9.65;;;3.60;99.90;;;;;;5100459;28;20189;-95
2022/12/02 04:16:20;;;;;;;19.60;11.23;;;3.50;99.90;;;;;;5100164;28;20236;-93
2022/12/02 04:18:47;;;;;;;19.58;11.65;;;3.50;99.90;;;;;;5100215;28;20185;-94
2022/12/02 04:21:14;;;;;;;19.05;9.55;;;3.50;99.90;;;;;;5099936;28;20209;-93
2022/12/02 04:23:41;;;;;;;15.85;10.60;;;3.40;99.90;;;;;;5100158;28;20409;-94
2022/12/02 04:26:09;;;;;;;21.13;10.70;;;3.40;99.90;;;;;;5100330;28;20215;-94
2022/12/02 04:28:36;;;;;;;20.08;10.50;;;3.40;99.90;;;;;;5100130;28;20205;-93
2022/12/02 04:31:03;;;;;;;17.65;10.48;;;3.40;99.90;;;;;;5099895;28;20213;-94
2022/12/02 04:33:30;;;;;;;18.50;10.02;;;3.40;99.90;;;;;;5099963;28;20208;-94
2022/12/02 04:35:56;;;;;;;17.25;9.52;;;3.50;99.90;;;;;;5099587;28;20236;-94
2022/12/02 04:38:24;;;;;;;15.65;9.73;;;3.50;99.90;;;;;;5092065;28;20268;-93
2022/12/02 04:40:50;;;;;;;15.90;8.82;;;3.50;99.90;;;;;;5067799;28;20223;-93
2022/12/02 04:43:19;;;;;;;16.48;10.60;;;3.50;99.90;;;;;;5069844;28;20228;-93
2022/12/02 04:45:46;;;;;;;18.35;10.02;;;3.50;99.90;;;;;;5071653;28;20258;-95
2022/12/02 04:48:15;;;;;;;16.08;9.45;;;3.50;99.90;;;;;;5070952;28;20209;-95
2022/12/02 04:50:42;;;;;;;20.65;10.55;;;3.50;99.90;;;;;;5066279;28;20270;-91
2022/12/02 04:53:09;;;;;;;17.40;11.18;;;3.50;99.90;;;;;;5062104;28;20190;-93
2022/12/02 04:55:36;;;;;;;18.77;10.65;;;3.50;99.90;;;;;;5073556;28;20218;-93
2022/12/02 04:58:03;;;;;;;24.17;11.75;;;3.50;99.90;;;;;;5065324;28;20198;-94
2022/12/02 05:00:31;;;;;;;19.38;10.38;;;3.50;99.90;;;;;;5067955;28;20556;-94
2022/12/02 05:02:58;;;;;;;13.45;8.63;;;3.50;99.90;;;;;;5062069;28;20178;-94
2022/12/02 05:05:27;;;;;;;21.45;11.65;;;3.50;99.90;;;;;;5066097;28;20174;-95
2022/12/02 05:07:54;;;;;;;21.02;11.32;;;3.50;99.90;;;;;;5074628;28;20277;-96
2022/12/02 05:10:21;;;;;;;21.90;10.45;;;3.50;99.90;;;;;;5068029;28;20269;-94
2022/12/02 05:12:48;;;;;;;18.30;10.40;;;3.50;99.90;;;;;;5073670;28;20210;-93
2022/12/02 05:15:47;;;;;;;16.75;10.30;;;3.50;99.90;;;;;;5064959;28;20194;-93
2022/12/02 05:18:14;;;;;;;17.75;11.57;;;3.40;99.90;;;;;;5062035;28;20347;-95
2022/12/02 05:20:41;;;;;;;18.27;10.55;;;3.40;99.90;;;;;;5065525;28;20246;-95
2022/12/02 05:23:08;;;;;;;24.83;11.90;;;3.40;99.90;;;;;;5066274;28;20214;-94
2022/12/02 05:25:35;;;;;;;20.80;12.85;;;3.40;99.90;;;;;;5065548;28;20464;-94
2022/12/02 05:28:02;;;;;;;19.58;11.27;;;3.40;99.90;;;;;;5068101;28;20198;-92
2022/12/02 05:30:29;;;;;;;19.20;11.23;;;3.40;99.90;;;;;;5046384;28;20210;-93
2022/12/02 05:32:57;;;;;;;14.30;9.98;;;3.40;99.90;;;;;;5036661;28;20274;-91
2022/12/02 05:35:26;;;;;;;18.92;10.30;;;3.50;99.90;;;;;;5037099;28;20698;-92
2022/12/02 05:37:53;;;;;;;19.80;10.05;;;3.40;99.90;;;;;;5036707;28;20206;-93
2022/12/02 05:40:20;;;;;;;14.15;9.27;;;3.40;99.90;;;;;;5036931;28;20229;-93
2022/12/02 05:42:47;;;;;;;20.23;10.70;;;3.50;99.90;;;;;;5037084;28;20274;-92
2022/12/02 05:45:17;;;;;;;17.20;10.25;;;3.50;99.90;;;;;;5036776;28;20199;-92
2022/12/02 05:47:48;;;;;;;21.75;10.45;;;3.50;99.90;;;;;;5037039;28;20199;-93
2022/12/02 05:50:17;;;;;;;19.23;11.27;;;3.60;99.90;;;;;;5036332;28;20222;-92
2022/12/02 05:52:43;;;;;;;22.27;11.45;;;3.60;99.90;;;;;;5036276;28;20204;-93
2022/12/02 05:55:15;;;;;;;22.27;9.57;;;3.60;99.90;;;;;;5037196;28;20206;-93
2022/12/02 05:57:42;;;;;;;20.42;10.98;;;3.50;99.90;;;;;;5036099;28;20285;-94
2022/12/02 06:00:17;;;;;;;18.35;10.57;;;3.50;99.90;;;;;;5036423;28;20232;-92
2022/12/02 06:02:45;;;;;;;21.40;9.98;;;3.50;99.90;;;;;;5037628;28;20564;-93
2022/12/02 06:05:20;;;;;;;19.45;10.55;;;3.50;99.90;;;;;;5036557;28;20559;-92
2022/12/02 06:07:49;;;;;;;23.88;10.73;;;3.50;99.90;;;;;;5037114;28;20293;-93
2022/12/02 06:10:23;;;;;;;21.42;10.73;;;3.50;99.90;;;;;;5035602;28;20620;-92
2022/12/02 06:12:52;;;;;;;17.35;10.48;;;3.50;99.90;;;;;;5036672;28;20277;-93
2022/12/02 06:15:19;;;;;;;21.50;10.55;;;3.50;99.90;;;;;;5036450;28;20202;-93
2022/12/02 06:17:46;;;;;;;17.90;9.95;;;3.50;99.90;;;;;;5036005;28;20226;-92
2022/12/02 06:20:21;;;;;;;20.77;12.38;;;3.50;99.90;;;;;;5037067;28;20230;-92
2022/12/02 06:22:48;;;;;;;17.75;9.80;;;3.50;99.90;;;;;;5035900;28;20260;-93
2022/12/02 06:25:24;;;;;;;19.35;10.70;;;3.50;99.90;;;;;;5038052;28;20216;-92
2022/12/02 06:27:52;;;;;;;21.92;8.52;;;3.50;99.90;;;;;;5038553;28;20204;-92
2022/12/02 06:30:19;;;;;;;16.65;9.45;;;3.50;99.90;;;;;;5036955;28;20449;-92
2022/12/02 06:32:52;;;;;;;18.40;10.65;;;3.50;99.90;;;;;;5036120;28;20226;-92
2022/12/02 06:35:24;;;;;;;17.25;9.48;;;3.50;99.90;;;;;;5036256;28;20202;-93
2022/12/02 06:37:54;;;;;;;16.05;10.25;;;3.50;99.90;;;;;;5052047;28;20228;-94
2022/12/02 06:40:25;;;;;;;17.08;9.10;;;3.50;99.90;;;;;;5041389;28;20226;-91
2022/12/02 06:42:52;;;;;;;16.58;8.90;;;3.50;99.90;;;;;;5037637;28;20207;-92
2022/12/02 06:45:24;;;;;;;18.02;9.63;;;3.40;99.90;;;;;;5037702;28;20689;-94
2022/12/02 06:48:25;;;;;;;16.27;9.65;;;3.40;99.90;;;;;;5039311;28;20211;-93
2022/12/02 06:50:56;;;;;;;15.07;8.48;;;3.40;99.90;;;;;;5041310;28;20221;-93
2022/12/02 06:53:32;;;;;;;18.85;8.70;;;3.50;99.90;;;;;;5041299;28;20307;-92
2022/12/02 06:56:04;;;;;;;13.15;7.75;;;3.50;99.90;;;;;;5040224;28;20249;-92
2022/12/02 06:58:37;;;;;;;14.80;8.30;;;3.50;99.90;;;;;;5052294;28;20206;-92
2022/12/02 07:01:32;;;;;;;14.52;7.50;;;3.50;99.90;;;;;;5054816;28;20257;-92
2022/12/02 07:04:23;;;;;;;10.88;6.75;;;3.50;99.90;;;;;;5050969;28;20288;-92
2022/12/02 07:06:54;;;;;;;13.75;8.18;;;3.50;99.90;;;;;;5051991;28;20207;-92
2022/12/02 07:09:28;;;;;;;13.25;6.35;;;3.50;99.90;;;;;;5039175;28;20245;-91
2022/12/02 07:11:58;;;;;;;13.00;7.18;;;3.50;99.90;;;;;;5036119;28;20235;-91
2022/12/02 07:14:30;;;;;;;18.13;9.40;;;3.50;99.90;;;;;;5036907;28;20702;-93
2022/12/02 07:16:59;;;;;;;10.95;7.65;;;3.50;99.90;;;;;;5034575;28;20567;-92
2022/12/02 07:19:35;;;;;;;13.77;6.82;;;3.50;99.90;;;;;;5035054;28;20202;-91
2022/12/02 07:22:13;;;;;;;11.45;8.18;;;3.60;99.90;;;;;;5033285;28;20213;-91
2022/12/02 07:24:41;;;;;;;16.08;8.35;;;3.60;99.90;;;;;;5033678;28;20202;-91
2022/12/02 07:27:20;;;;;;;13.18;7.80;;;3.60;99.90;;;;;;5033564;28;20560;-92
2022/12/02 07:29:48;;;;;;;9.05;7.07;;;3.60;99.90;;;;;;5033431;28;20209;-92
2022/12/02 07:32:15;;;;;;;15.35;8.55;;;3.60;99.90;;;;;;5032938;28;20507;-92
2022/12/02 07:34:41;;;;;;;12.88;7.70;;;3.60;99.90;;;;;;5032795;28;20206;-92
2022/12/02 07:37:10;;;;;;;11.13;6.18;;;3.60;99.90;;;;;;5032885;28;20722;-91
2022/12/02 07:39:36;;;;;;;11.02;8.05;;;3.60;99.90;;;;;;5033371;28;20676;-91
2022/12/02 07:42:03;;;;;;;11.55;7.30;;;3.60;99.90;;;;;;5035131;28;20636;-91
2022/12/02 07:44:30;;;;;;;18.73;8.18;;;3.60;99.90;;;;;;5033923;28;20587;-93
2022/12/02 07:46:57;;;;;;;14.13;7.35;;;3.60;99.90;;;;;;5034432;28;20207;-92
2022/12/02 07:49:24;;;;;;;20.35;8.35;;;3.60;99.90;;;;;;5034138;28;20206;-92
2022/12/02 07:51:51;;;;;;;11.45;7.45;;;3.60;99.90;;;;;;5033726;28;20228;-92
2022/12/02 07:54:19;;;;;;;17.58;8.07;;;3.60;99.90;;;;;;5033624;28;20213;-92
2022/12/02 07:56:46;;;;;;;15.63;8.27;;;3.60;99.90;;;;;;5034633;28;20215;-92
2022/12/02 07:59:15;;;;;;;15.93;9.77;;;3.60;99.90;;;;;;5032993;28;20213;-92
2022/12/02 08:01:44;;;;;;;21.75;9.32;;;3.60;99.90;;;;;;5033230;28;20226;-92
2022/12/02 08:04:10;;;;;;;14.10;8.85;;;3.60;99.90;;;;;;5032850;28;20209;-92
2022/12/02 08:06:37;;;;;;;21.52;11.27;;;3.60;99.90;;;;;;5033312;28;20668;-91
2022/12/02 08:09:04;;;;;;;16.13;9.23;;;3.60;99.90;;;;;;5033298;28;20300;-92
2022/12/02 08:11:32;;;;;;;24.45;11.98;;;3.60;99.90;;;;;;5032795;28;20223;-91
2022/12/02 08:13:59;;;;;;;19.50;11.07;;;3.60;99.90;;;;;;5033303;28;20202;-91
2022/12/02 08:16:26;;;;;;;16.88;9.93;;;3.60;99.90;;;;;;5033342;28;20602;-92
2022/12/02 08:18:53;;;;;;;19.17;9.80;;;3.60;99.90;;;;;;5033055;28;20199;-92
2022/12/02 08:21:19;;;;;;;25.00;11.10;;;3.60;99.90;;;;;;5033260;28;20238;-91
2022/12/02 08:23:46;;;;;;;17.67;9.48;;;3.70;99.90;;;;;;5032954;28;20202;-92
2022/12/02 08:26:13;;;;;;;23.40;9.57;;;3.60;99.90;;;;;;5041880;28;20201;-93
2022/12/02 08:28:41;;;;;;;21.58;10.77;;;3.60;99.90;;;;;;5052236;28;20208;-92
2022/12/02 08:31:08;;;;;;;20.77;11.43;;;3.60;99.90;;;;;;5053207;28;20380;-93
2022/12/02 08:33:35;;;;;;;20.80;10.70;;;3.60;99.90;;;;;;5056156;28;20201;-92
2022/12/02 08:36:02;;;;;;;20.10;11.38;;;3.50;99.90;;;;;;5057801;28;20217;-91
2022/12/02 08:38:29;;;;;;;21.73;10.43;;;3.50;99.90;;;;;;5057062;28;20320;-91
2022/12/02 08:40:56;;;;;;;22.08;10.68;;;3.50;99.90;;;;;;5056780;28;20222;-93
2022/12/02 08:43:23;;;;;;;22.15;11.52;;;3.50;99.90;;;;;;5057410;28;20296;-91
2022/12/02 08:45:51;;;;;;;21.42;11.68;;;3.50;99.90;;;;;;5056787;28;20372;-91
2022/12/02 08:48:18;;;;;;;22.17;10.20;;;3.60;99.90;;;;;;5057002;28;20683;-91
2022/12/02 08:50:45;;;;;;;22.63;10.77;;;3.60;99.90;;;;;;5062117;28;20218;-93
2022/12/02 08:53:12;;;;;;;20.98;11.02;;;3.60;99.90;;;;;;5059534;28;20220;-89
2022/12/02 08:55:39;;;;;;;26.42;11.27;;;3.60;99.90;;;;;;5058689;28;20233;-92
2022/12/02 08:58:06;;;;;;;22.88;10.68;;;3.60;99.90;;;;;;5058192;28;20316;-91
2022/12/02 09:00:33;;;;;;;17.70;9.95;;;3.60;99.90;;;;;;5059224;28;20313;-91
2022/12/02 09:03:01;;;;;;;19.45;10.38;;;3.60;99.90;;;;;;5057901;28;20205;-90
2022/12/02 09:05:28;;;;;;;20.95;10.25;;;3.60;99.90;;;;;;5057883;28;20702;-90
2022/12/02 09:07:55;;;;;;;25.05;10.40;;;3.70;99.90;;;;;;5056885;28;20656;-90
2022/12/02 09:10:22;;;;;;;18.33;10.65;;;3.70;99.90;;;;;;5057004;28;20226;-91
2022/12/02 09:12:49;;;;;;;16.38;10.13;;;3.70;99.90;;;;;;5068005;28;20251;-91
2022/12/02 09:15:17;;;;;;;20.15;10.18;;;3.70;99.90;;;;;;5077490;28;20198;-91
2022/12/02 09:17:44;;;;;;;20.88;9.20;;;3.80;99.90;;;;;;5084748;28;20227;-92
2022/12/02 09:20:14;;;;;;;19.50;9.43;;;3.70;99.90;;;;;;5079986;28;20726;-92
2022/12/02 09:22:41;;;;;;;19.88;9.85;;;3.80;99.90;;;;;;5063728;28;20205;-92
2022/12/02 09:25:07;;;;;;;15.55;10.20;;;3.80;99.90;;;;;;5061249;28;20202;-93
2022/12/02 09:27:34;;;;;;;21.38;9.60;;;3.80;99.90;;;;;;5066852;28;20285;-93
2022/12/02 09:30:01;;;;;;;16.30;8.85;;;3.80;99.90;;;;;;5068446;28;20224;-92
2022/12/02 09:32:28;;;;;;;15.00;7.60;;;3.90;99.90;;;;;;5057255;28;20212;-91
2022/12/02 09:34:55;;;;;;;16.80;7.97;;;3.80;99.90;;;;;;5073135;22;20237;-73
2022/12/02 09:37:23;;;;;;;14.45;7.63;;;3.80;99.90;;;;;;5035486;28;20592;-73
2022/12/02 09:39:50;;;;;;;16.70;7.63;;;3.80;99.90;;;;;;5051894;28;20205;-73
2022/12/02 09:42:18;;;;;;;16.23;7.78;;;3.80;99.90;;;;;;5051625;28;20197;-73
2022/12/02 09:44:46;;;;;;;12.90;6.90;;;3.80;99.90;;;;;;5051871;28;20613;-73
2022/12/02 09:47:13;;;;;;;20.88;8.80;;;3.80;99.90;;;;;;5052329;28;20201;-73
2022/12/02 09:49:40;;;;;;;13.00;8.35;;;3.80;99.90;;;;;;5051819;28;20210;-77
2022/12/02 09:52:14;;;;;;;15.57;8.15;;;3.80;99.90;;;;;;5051868;28;20569;-73
2022/12/02 09:54:42;;;;;;;17.48;7.68;;;3.90;99.90;;;;;;5052013;28;20280;-73
2022/12/02 09:57:11;;;;;;;10.70;7.00;;;3.90;99.90;;;;;;5051849;28;20279;-73
2022/12/02 09:59:38;;;;;;;14.52;7.22;;;3.90;99.90;;;;;;5051540;28;20206;-73
2022/12/02 10:02:06;;;;;;;10.45;6.50;;;3.80;99.90;;;;;;5051424;28;20197;-73
2022/12/02 10:04:34;;;;;;;12.70;7.53;;;3.90;99.90;;;;;;5051556;28;20244;-72
2022/12/02 10:07:00;;;;;;;15.32;7.18;;;3.90;99.90;;;;;;5051776;28;20212;-73
2022/12/02 10:09:29;;;;;;;13.18;5.90;;;3.90;99.90;;;;;;5051655;28;20210;-73
2022/12/02 10:11:57;;;;;;;10.55;6.28;;;3.90;99.90;;;;;;5051089;28;20206;-73
2022/12/02 10:14:24;;;;;;;11.02;6.05;;;3.90;99.90;;;;;;5051526;28;20209;-73
2022/12/02 10:16:52;;;;;;;15.25;6.47;;;3.90;99.90;;;;;;5051172;28;20201;-72
2022/12/02 10:19:20;;;;;;;10.07;6.85;;;4.00;99.90;;;;;;5051399;28;20206;-73
2022/12/02 10:21:47;;;;;;;14.13;8.32;;;3.90;99.90;;;;;;5051061;28;20205;-73
2022/12/02 10:24:14;;;;;;;10.20;6.57;;;3.90;99.90;;;;;;5051410;28;20208;-73
2022/12/02 10:26:46;;;;;;;12.55;6.78;;;3.90;99.90;;;;;;5051504;28;20542;-73
2022/12/02 10:29:18;;;;;;;10.55;6.68;;;4.00;99.90;;;;;;5051255;28;20734;-73
2022/12/02 10:31:57;;;;;;;9.45;5.93;;;4.00;99.90;;;;;;5050762;28;20207;-73
2022/12/02 10:34:24;;;;;;;14.13;7.07;;;4.00;99.90;;;;;;5051537;28;20638;-73
2022/12/02 10:36:52;;;;;;;16.85;6.25;;;3.90;99.90;;;;;;5050889;28;20240;-73
2022/12/02 10:39:25;;;;;;;10.00;5.80;;;4.00;99.90;;;;;;5051167;28;20547;-73
2022/12/02 10:42:12;;;;;;;9.75;5.60;;;4.00;99.90;;;;;;5051035;28;20213;-73
2022/12/02 10:44:42;;;;;;;7.57;5.22;;;4.00;99.90;;;;;;5050905;28;20324;-73
2022/12/02 10:47:16;;;;;;;8.15;4.68;;;4.00;99.90;;;;;;5051233;28;20227;-73
2022/12/02 10:49:50;;;;;;;12.15;5.10;;;4.00;99.90;;;;;;5050895;28;20220;-73
2022/12/02 10:52:19;;;;;;;10.48;4.72;;;4.00;99.90;;;;;;5050678;28;20205;-73
2022/12/02 10:54:49;;;;;;;7.93;4.55;;;4.00;99.90;;;;;;5050235;28;20225;-73
2022/12/02 10:57:23;;;;;;;8.60;4.93;;;3.90;99.90;;;;;;5050957;28;20229;-73
2022/12/02 10:59:52;;;;;;;13.43;5.45;;;4.00;99.90;;;;;;5050939;28;20589;-73
2022/12/02 11:02:22;;;;;;;9.90;5.18;;;4.00;99.90;;;;;;5050518;28;20217;-73
2022/12/02 11:04:49;;;;;;;7.50;5.18;;;4.00;99.90;;;;;;5050868;28;20237;-73
2022/12/02 11:07:17;;;;;;;6.22;4.47;;;4.10;99.90;;;;;;5050889;28;20202;-73
2022/12/02 11:09:46;;;;;;;14.88;6.70;;;4.00;99.90;;;;;;5050574;28;20212;-73
2022/12/02 11:12:33;;;;;;;13.20;5.05;;;4.00;99.90;;;;;;5050564;28;20260;-73
2022/12/02 11:15:04;;;;;;;8.52;5.38;;;4.00;99.90;;;;;;5050714;28;20221;-73
2022/12/02 11:17:49;;;;;;;9.02;5.43;;;4.00;99.90;;;;;;5050621;28;20226;-71
2022/12/02 11:20:30;;;;;;;11.40;5.25;;;4.00;99.90;;;;;;5050588;28;20209;-73
2022/12/02 11:23:16;;;;;;;7.03;4.85;;;4.00;99.90;;;;;;5051032;28;20228;-73
2022/12/02 11:26:04;;;;;;;7.05;4.32;;;3.90;99.90;;;;;;5050511;28;20735;-75
2022/12/02 11:29:05;;;;;;;8.25;5.38;;;3.90;99.90;;;;;;5050510;28;20660;-73
2022/12/02 11:31:33;;;;;;;7.35;4.28;;;3.90;99.90;;;;;;5050137;28;20201;-72
2022/12/02 11:34:03;;;;;;;8.38;5.07;;;3.90;99.90;;;;;;5050003;28;20206;-73
2022/12/02 11:36:32;;;;;;;8.43;4.38;;;3.90;99.90;;;;;;5050251;28;20226;-73
2022/12/02 11:39:04;;;;;;;8.98;5.05;;;3.90;99.90;;;;;;5050647;28;20224;-73
2022/12/02 11:41:52;;;;;;;10.38;4.90;;;3.90;99.90;;;;;;5050192;28;20590;-73
2022/12/02 11:44:24;;;;;;;7.60;4.55;;;3.90;99.90;;;;;;5050256;28;20206;-73
2022/12/02 11:46:54;;;;;;;6.38;4.60;;;3.90;99.90;;;;;;5050997;28;20205;-73
2022/12/02 11:49:28;;;;;;;7.97;5.30;;;3.90;99.90;;;;;;5050436;28;20209;-73
2022/12/02 11:52:18;;;;;;;6.95;4.35;;;4.00;99.90;;;;;;5050058;28;20224;-73
2022/12/02 11:54:49;;;;;;;6.70;4.95;;;4.00;99.90;;;;;;5044910;28;20218;-73
2022/12/02 11:57:22;;;;;;;7.13;4.95;;;4.00;99.90;;;;;;5050298;28;20209;-73
2022/12/02 11:59:50;;;;;;;7.70;5.03;;;4.00;99.90;;;;;;5050466;28;20208;-73
2022/12/02 12:02:20;;;;;;;6.47;4.68;;;3.90;99.90;;;;;;5049456;28;20208;-73
2022/12/02 12:04:58;;;;;;;8.65;5.57;;;3.90;99.90;;;;;;5049707;28;20228;-72
2022/12/02 12:07:44;;;;;;;8.55;5.30;;;3.90;99.90;;;;;;5051570;28;20213;-72
2022/12/02 12:10:28;;;;;;;10.70;6.18;;;3.90;99.90;;;;;;5054619;28;20681;-73
2022/12/02 12:13:22;;;;;;;11.80;6.72;;;3.80;99.90;;;;;;5054141;28;20205;-72
2022/12/02 12:15:51;;;;;;;11.70;8.35;;;3.80;99.90;;;;;;5053908;28;20229;-73
2022/12/02 12:18:40;;;;;;;6.85;4.00;;;3.90;99.90;;;;;;5054057;28;20599;-75
2022/12/02 12:21:07;;;;;;;8.40;4.30;;;3.90;99.90;;;;;;5053416;28;20213;-73
2022/12/02 12:23:36;;;;;;;5.20;4.20;;;3.90;99.90;;;;;;5030060;28;20630;-73
2022/12/02 12:26:04;;;;;;;6.40;4.13;;;3.90;99.90;;;;;;5033383;28;20222;-73
2022/12/02 12:28:33;;;;;;;4.65;3.70;;;3.90;99.90;;;;;;5033070;28;20226;-73
2022/12/02 12:31:02;;;;;;;8.27;4.28;;;3.80;99.90;;;;;;5032657;28;20202;-73
2022/12/02 12:33:29;;;;;;;6.03;3.58;;;3.80;99.90;;;;;;5032993;28;20202;-73
2022/12/02 12:35:59;;;;;;;6.28;3.97;;;3.80;99.90;;;;;;5033058;28;20230;-72
2022/12/02 12:38:28;;;;;;;5.40;3.53;;;3.80;99.90;;;;;;5033008;28;20698;-72
2022/12/02 12:40:56;;;;;;;6.90;4.18;;;3.80;99.90;;;;;;5032575;28;20693;-73
2022/12/02 12:43:24;;;;;;;4.03;3.58;;;3.80;99.90;;;;;;5033024;28;20206;-73
2022/12/02 12:45:51;;;;;;;4.50;3.90;;;3.80;99.90;;;;;;5032584;28;20226;-73
2022/12/02 12:48:19;;;;;;;3.70;3.05;;;3.80;99.90;;;;;;5033004;28;20195;-73
2022/12/02 12:50:46;;;;;;;7.78;5.20;;;3.80;99.90;;;;;;5032323;28;20198;-73
2022/12/02 12:53:15;;;;;;;6.85;4.45;;;3.80;99.90;;;;;;5032923;28;20218;-73
2022/12/02 12:55:43;;;;;;;5.05;3.92;;;3.80;99.90;;;;;;5032699;28;20226;-73
2022/12/02 12:58:10;;;;;;;5.00;3.70;;;3.80;99.90;;;;;;5032953;28;20705;-73